createdAt,value
2023-03-21T00:02:01.804Z,101210.59
2023-03-21T00:04:44.522Z,101192.94
2023-03-21T00:07:19.046Z,101231.28
2023-03-21T00:09:48.680Z,101229.53
2023-03-21T00:12:17.307Z,101224.38
2023-03-21T00:14:48.825Z,101228.13
2023-03-21T00:17:18.937Z,101221.09
2023-03-21T00:19:51.159Z,101168.47
2023-03-21T00:22:20.458Z,101203.63
2023-03-21T00:24:48.730Z,101214.84
2023-03-21T00:27:42.900Z,101193.78
2023-03-21T00:30:11.829Z,101206.75
2023-03-21T00:32:54.988Z,101224.31
2023-03-21T00:38:18.542Z,101215.38
2023-03-21T00:40:49.151Z,101213.56
2023-03-21T00:43:19.730Z,101174.34
2023-03-21T00:45:51.720Z,101189.91
2023-03-21T00:48:21.745Z,101178.78
2023-03-21T00:50:50.033Z,101198.81
2023-03-21T00:53:18.320Z,101201.34
2023-03-21T00:55:48.897Z,101196.19
2023-03-21T00:58:18.357Z,101191.75
2023-03-21T01:00:48.343Z,101201.31
2023-03-21T01:03:24.798Z,101181.31
2023-03-21T01:06:07.853Z,101178.81
2023-03-21T01:08:51.116Z,101208.59
2023-03-21T01:11:25.960Z,101218.34
2023-03-21T01:14:04.208Z,101213.81
2023-03-21T01:16:40.579Z,101215.53
2023-03-21T01:19:22.102Z,101213.72
2023-03-21T01:21:54.233Z,101208.59
2023-03-21T01:24:22.509Z,101213.75
2023-03-21T01:26:54.041Z,101186.53
2023-03-21T01:29:22.506Z,101205.06
2023-03-21T01:31:54.131Z,101215.69
2023-03-21T01:34:22.679Z,101203.22
2023-03-21T01:36:51.270Z,101206.88
2023-03-21T01:39:20.868Z,101212.34
2023-03-21T01:41:49.480Z,101201.94
2023-03-21T01:44:19.435Z,101207.19
2023-03-21T01:47:09.292Z,101205.44
2023-03-21T01:49:46.518Z,101210.59
2023-03-21T01:52:33.559Z,101210.53
2023-03-21T01:55:12.122Z,101214.06
2023-03-21T01:58:03.987Z,101185.91
2023-03-21T02:00:36.772Z,101225.47
2023-03-21T02:03:18.931Z,101220.16
2023-03-21T02:05:56.091Z,101213.25
2023-03-21T02:08:36.814Z,101200.03
2023-03-21T02:11:10.273Z,101220.19
2023-03-21T02:13:38.777Z,101224.63
2023-03-21T02:16:15.549Z,101235.16
2023-03-21T02:18:52.015Z,101200.84
2023-03-21T02:21:45.517Z,101241.31
2023-03-21T02:24:59.548Z,101245.72
2023-03-21T02:27:36.294Z,101211.53
2023-03-21T02:30:35.525Z,101207.16
2023-03-21T02:33:39.344Z,101131.38
2023-03-21T02:36:19.408Z,101231.63
2023-03-21T02:38:56.836Z,101235.19
2023-03-21T02:41:40.111Z,101245.75
2023-03-21T02:44:17.888Z,101242.25
2023-03-21T02:47:03.170Z,101238.78
2023-03-21T02:49:43.414Z,101226.41
2023-03-21T02:52:28.262Z,101231.59
2023-03-21T02:55:04.001Z,101231.63
2023-03-21T02:57:42.097Z,101187.59
2023-03-21T03:00:17.511Z,101229.03
2023-03-21T03:02:50.597Z,101231.69
2023-03-21T03:05:23.317Z,101228.19
2023-03-21T03:08:03.310Z,101224.75
2023-03-21T03:10:45.362Z,101221.22
2023-03-21T03:13:23.207Z,101187.59
2023-03-21T03:16:05.542Z,101219.22
2023-03-21T03:18:43.493Z,101214.88
2023-03-21T03:21:20.585Z,101218.50
2023-03-21T03:23:51.853Z,101208.06
2023-03-21T03:26:27.264Z,101221.31
2023-03-21T03:28:59.951Z,101194.88
2023-03-21T03:31:35.600Z,101220.38
2023-03-21T03:34:08.591Z,101212.50
2023-03-21T03:36:41.455Z,101225.69
2023-03-21T03:39:13.016Z,101219.50
2023-03-21T03:42:07.883Z,101237.75
2023-03-21T03:44:38.055Z,101238.63
2023-03-21T03:47:15.216Z,101242.19
2023-03-21T03:49:54.525Z,101230.94
2023-03-21T03:52:28.403Z,101221.28
2023-03-21T03:54:57.882Z,101237.09
2023-03-21T03:57:29.230Z,101230.03
2023-03-21T04:00:00.590Z,101236.97
2023-03-21T04:02:30.305Z,101229.63
2023-03-21T04:04:58.939Z,101240.88
2023-03-21T04:07:28.218Z,101220.91
2023-03-21T04:09:58.607Z,101214.91
2023-03-21T04:12:28.634Z,101208.81
2023-03-21T04:15:08.136Z,101221.03
2023-03-21T04:17:40.264Z,101228.13
2023-03-21T04:20:15.085Z,101222.88
2023-03-21T04:22:45.108Z,101216.81
2023-03-21T04:25:18.984Z,101217.69
2023-03-21T04:27:55.646Z,101220.31
2023-03-21T04:30:25.683Z,101163.13
2023-03-21T04:32:57.239Z,101216.88
2023-03-21T04:35:25.782Z,101198.44
2023-03-21T04:37:54.396Z,101205.38
2023-03-21T04:40:23.297Z,101220.16
2023-03-21T04:42:51.874Z,101220.88
2023-03-21T04:45:21.763Z,101227.00
2023-03-21T04:47:50.084Z,101210.41
2023-03-21T04:50:18.686Z,101221.84
2023-03-21T04:52:47.168Z,101219.09
2023-03-21T04:55:16.272Z,101226.28
2023-03-21T04:57:44.538Z,101224.63
2023-03-21T05:00:15.234Z,101222.88
2023-03-21T05:02:46.433Z,101231.63
2023-03-21T05:05:14.922Z,101226.44
2023-03-21T05:07:43.327Z,101206.97
2023-03-21T05:10:13.678Z,101238.59
2023-03-21T05:12:42.590Z,101238.63
2023-03-21T05:15:11.376Z,101231.63
2023-03-21T05:17:39.748Z,101235.13
2023-03-21T05:20:11.802Z,101234.13
2023-03-21T05:22:41.848Z,101231.66
2023-03-21T05:25:11.910Z,101215.94
2023-03-21T05:27:45.372Z,101157.88
2023-03-21T05:30:16.397Z,101228.22
2023-03-21T05:32:44.770Z,101226.31
2023-03-21T05:35:15.376Z,101217.38
2023-03-21T05:37:43.832Z,101206.78
2023-03-21T05:40:13.513Z,101243.72
2023-03-21T05:42:42.197Z,101220.81
2023-03-21T05:45:11.244Z,101236.75
2023-03-21T05:47:39.739Z,101236.75
2023-03-21T05:50:09.170Z,101237.63
2023-03-21T05:52:39.224Z,101221.06
2023-03-21T05:55:08.480Z,101204.97
2023-03-21T05:57:39.676Z,101234.13
2023-03-21T06:00:09.917Z,101241.97
2023-03-21T06:02:38.711Z,101245.56
2023-03-21T06:05:07.826Z,101246.44
2023-03-21T06:07:37.200Z,101224.50
2023-03-21T06:10:11.147Z,101249.06
2023-03-21T06:12:39.565Z,101250.00
2023-03-21T06:15:09.908Z,101247.41
2023-03-21T06:17:38.603Z,101229.78
2023-03-21T06:20:08.840Z,101250.72
2023-03-21T06:22:37.946Z,101244.63
2023-03-21T06:25:10.117Z,101226.25
2023-03-21T06:27:39.809Z,101236.84
2023-03-21T06:30:09.633Z,101240.44
2023-03-21T06:32:38.312Z,101220.06
2023-03-21T06:35:07.488Z,101193.56
2023-03-21T06:37:36.374Z,101197.13
2023-03-21T06:40:05.933Z,101201.50
2023-03-21T06:42:35.777Z,101208.63
2023-03-21T06:45:04.492Z,101233.25
2023-03-21T06:47:35.689Z,101222.75
2023-03-21T06:50:03.941Z,101221.97
2023-03-21T06:52:32.118Z,101220.13
2023-03-21T06:55:01.214Z,101214.72
2023-03-21T06:57:29.819Z,101217.25
2023-03-21T07:00:00.069Z,101213.91
2023-03-21T07:02:29.060Z,101207.81
2023-03-21T07:04:57.837Z,101215.69
2023-03-21T07:07:29.448Z,101199.06
2023-03-21T07:09:58.229Z,101201.72
2023-03-21T07:12:26.644Z,101217.59
2023-03-21T07:14:55.603Z,101222.84
2023-03-21T07:17:25.523Z,101225.41
2023-03-21T07:19:53.643Z,101235.09
2023-03-21T07:22:22.271Z,101232.44
2023-03-21T07:25:02.374Z,101238.50
2023-03-21T07:27:35.263Z,101231.50
2023-03-21T07:30:04.155Z,101243.75
2023-03-21T07:32:38.239Z,101228.75
2023-03-21T07:35:08.033Z,101243.72
2023-03-21T07:37:37.903Z,101244.59
2023-03-21T07:40:11.005Z,101242.03
2023-03-21T07:42:39.740Z,101243.81
2023-03-21T07:45:10.623Z,101224.63
2023-03-21T07:47:40.309Z,101243.91
2023-03-21T07:50:09.041Z,101244.00
2023-03-21T07:52:37.392Z,101247.53
2023-03-21T07:55:06.244Z,101237.97
2023-03-21T07:57:36.657Z,101230.13
2023-03-21T08:00:09.278Z,101242.25
2023-03-21T08:02:37.568Z,101231.69
2023-03-21T08:05:09.875Z,101235.31
2023-03-21T08:07:38.110Z,101240.44
2023-03-21T08:10:07.248Z,101238.59
2023-03-21T08:12:35.826Z,101208.78
2023-03-21T08:15:04.508Z,101231.72
2023-03-21T08:17:33.519Z,101231.75
2023-03-21T08:20:01.642Z,101234.44
2023-03-21T08:22:31.393Z,101238.78
2023-03-21T08:24:59.527Z,101233.56
2023-03-21T08:27:27.862Z,101241.53
2023-03-21T08:29:56.896Z,101224.75
2023-03-21T08:32:29.477Z,101239.03
2023-03-21T08:35:00.812Z,101229.38
2023-03-21T08:37:31.241Z,101235.56
2023-03-21T08:39:59.615Z,101232.09
2023-03-21T08:42:28.198Z,101237.41
2023-03-21T08:44:56.732Z,101232.97
2023-03-21T08:47:25.363Z,101235.56
2023-03-21T08:49:53.796Z,101230.38
2023-03-21T08:52:21.951Z,101225.09
2023-03-21T08:54:51.547Z,101226.03
2023-03-21T08:57:19.974Z,101219.94
2023-03-21T08:59:48.606Z,101231.31
2023-03-21T09:02:17.628Z,101237.47
2023-03-21T09:04:46.306Z,101225.22
2023-03-21T09:07:18.207Z,101213.78
2023-03-21T09:09:53.381Z,101221.63
2023-03-21T09:12:28.289Z,101226.03
2023-03-21T09:14:56.960Z,101221.66
2023-03-21T09:17:25.325Z,101207.66
2023-03-21T09:19:53.638Z,101223.50
2023-03-21T09:22:23.719Z,101207.69
2023-03-21T09:24:52.443Z,101214.72
2023-03-21T09:27:23.338Z,101204.13
2023-03-21T09:29:54.419Z,101203.22
2023-03-21T09:32:22.668Z,101219.94
2023-03-21T09:34:51.542Z,101216.44
2023-03-21T09:37:21.525Z,101214.72
2023-03-21T09:39:51.359Z,101218.22
2023-03-21T09:42:33.254Z,101214.66
2023-03-21T09:45:12.383Z,101223.44
2023-03-21T09:47:49.860Z,101218.22
2023-03-21T09:50:22.094Z,101218.22
2023-03-21T09:52:57.072Z,101217.34
2023-03-21T09:55:31.151Z,101220.84
2023-03-21T09:58:06.919Z,101220.00
2023-03-21T10:00:39.856Z,101227.00
2023-03-21T10:03:24.656Z,101230.53
2023-03-21T10:05:57.542Z,101220.03
2023-03-21T10:08:31.125Z,101210.38
2023-03-21T10:11:03.891Z,101216.50
2023-03-21T10:13:35.740Z,101211.25
2023-03-21T10:16:15.460Z,101209.50
2023-03-21T10:18:47.035Z,101200.72
2023-03-21T10:21:47.808Z,101197.22
2023-03-21T10:24:14.091Z,101169.13
2023-03-21T10:26:44.495Z,101191.97
2023-03-21T10:29:17.015Z,101192.84
2023-03-21T10:31:48.041Z,101183.16
2023-03-21T10:34:20.886Z,101188.44
2023-03-21T10:36:49.434Z,101188.44
2023-03-21T10:39:26.383Z,101193.69
2023-03-21T10:41:55.346Z,101181.38
2023-03-21T10:44:30.103Z,101188.44
2023-03-21T10:47:04.876Z,101182.31
2023-03-21T10:49:40.667Z,101180.53
2023-03-21T10:52:22.898Z,101172.59
2023-03-21T10:55:05.470Z,101169.09
2023-03-21T10:57:34.070Z,101179.66
2023-03-21T11:00:14.229Z,101160.31
2023-03-21T11:02:44.876Z,101149.78
2023-03-21T11:05:22.613Z,101174.38
2023-03-21T11:07:58.927Z,101172.66
2023-03-21T11:10:33.799Z,101166.50
2023-03-21T11:13:07.206Z,101162.06
2023-03-21T11:15:43.856Z,101153.25
2023-03-21T11:18:20.863Z,101156.78
2023-03-21T11:20:54.375Z,101148.91
2023-03-21T11:23:27.092Z,101128.75
2023-03-21T11:25:56.046Z,101144.53
2023-03-21T11:28:33.666Z,101133.97
2023-03-21T11:31:03.554Z,101140.97
2023-03-21T11:33:37.659Z,101136.56
2023-03-21T11:36:09.572Z,101120.78
2023-03-21T11:38:40.248Z,101119.91
2023-03-21T11:41:09.402Z,101119.91
2023-03-21T11:43:39.418Z,101118.16
2023-03-21T11:46:10.460Z,101113.75
2023-03-21T11:48:43.028Z,101107.59
2023-03-21T11:51:21.834Z,101104.94
2023-03-21T11:53:57.388Z,101109.38
2023-03-21T11:56:33.550Z,101109.38
2023-03-21T11:59:29.435Z,101111.09
2023-03-21T12:02:20.377Z,101099.72
2023-03-21T12:04:55.772Z,101098.78
2023-03-21T12:07:49.792Z,101100.50
2023-03-21T12:10:33.126Z,101100.50
2023-03-21T12:13:31.778Z,101091.81
2023-03-21T12:16:22.515Z,101079.50
2023-03-21T12:19:14.826Z,101084.78
2023-03-21T12:21:55.026Z,101076.81
2023-03-21T12:24:33.330Z,101086.47
2023-03-21T12:27:13.369Z,101080.22
2023-03-21T12:29:58.563Z,101078.47
2023-03-21T12:32:43.027Z,101088.09
2023-03-21T12:35:23.444Z,101081.06
2023-03-21T12:38:02.668Z,101039.13
2023-03-21T12:40:43.374Z,101082.97
2023-03-21T12:43:41.638Z,101068.13
2023-03-21T12:46:17.225Z,101068.81
2023-03-21T12:48:49.664Z,101074.16
2023-03-21T12:51:21.955Z,101046.13
2023-03-21T12:53:59.239Z,101053.03
2023-03-21T12:56:32.463Z,101054.84
2023-03-21T12:59:06.279Z,101044.22
2023-03-21T13:01:38.274Z,101052.97
2023-03-21T13:04:32.963Z,101046.81
2023-03-21T13:07:05.409Z,101051.03
2023-03-21T13:09:39.696Z,101038.91
2023-03-21T13:12:22.439Z,101040.63
2023-03-21T13:15:07.886Z,101038.00
2023-03-21T13:17:43.842Z,101046.94
2023-03-21T13:20:21.552Z,101043.44
2023-03-21T13:22:50.252Z,101010.06
2023-03-21T13:25:22.036Z,101038.91
2023-03-21T13:27:54.652Z,101026.59
2023-03-21T13:30:26.684Z,101028.25
2023-03-21T13:33:05.860Z,101003.66
2023-03-21T13:35:41.296Z,101010.59
2023-03-21T13:38:16.612Z,101000.94
2023-03-21T13:40:50.784Z,101017.66
2023-03-21T13:43:45.259Z,101009.84
2023-03-21T13:46:15.563Z,100994.78
2023-03-21T13:48:59.971Z,100996.53
2023-03-21T13:51:47.528Z,100993.16
2023-03-21T13:54:24.697Z,100986.28
2023-03-21T13:57:01.247Z,100983.56
2023-03-21T13:59:42.164Z,100988.94
2023-03-21T14:02:33.122Z,100974.84
2023-03-21T14:05:05.670Z,100973.16
2023-03-21T14:07:38.146Z,100965.28
2023-03-21T14:10:19.038Z,100958.28
2023-03-21T14:12:49.851Z,100953.00
2023-03-21T14:15:21.749Z,100961.78
2023-03-21T14:17:58.704Z,100951.22
2023-03-21T14:20:29.250Z,100951.28
2023-03-21T14:23:01.037Z,100949.47
2023-03-21T14:25:46.679Z,100957.31
2023-03-21T14:28:20.085Z,100937.25
2023-03-21T14:30:53.863Z,100954.78
2023-03-21T14:33:28.227Z,100954.91
2023-03-21T14:36:00.279Z,100947.84
2023-03-21T14:38:34.342Z,100930.28
2023-03-21T14:41:02.964Z,100928.56
2023-03-21T14:43:34.464Z,100932.06
2023-03-21T14:46:03.064Z,100905.69
2023-03-21T14:48:35.520Z,100915.34
2023-03-21T14:51:06.482Z,100907.44
2023-03-21T14:53:39.534Z,100898.66
2023-03-21T14:56:11.519Z,100865.41
2023-03-21T14:58:44.194Z,100882.84
2023-03-21T15:01:17.755Z,100883.63
2023-03-21T15:03:47.964Z,100873.97
2023-03-21T15:06:16.489Z,100873.06
2023-03-21T15:08:57.216Z,100873.16
2023-03-21T15:11:32.185Z,100858.28
2023-03-21T15:14:04.486Z,100861.78
2023-03-21T15:16:33.278Z,100859.94
2023-03-21T15:19:05.446Z,100852.94
2023-03-21T15:21:38.862Z,100842.41
2023-03-21T15:24:14.226Z,100823.97
2023-03-21T15:26:46.562Z,100842.41
2023-03-21T15:29:18.164Z,100837.22
2023-03-21T15:31:49.332Z,100824.88
2023-03-21T15:34:23.213Z,100823.03
2023-03-21T15:36:58.191Z,100818.72
2023-03-21T15:39:29.888Z,100812.59
2023-03-21T15:42:01.694Z,100809.13
2023-03-21T15:44:32.725Z,100799.41
2023-03-21T15:47:04.593Z,100786.31
2023-03-21T15:49:41.680Z,100796.78
2023-03-21T15:52:15.479Z,100768.84
2023-03-21T15:54:48.060Z,100780.22
2023-03-21T15:57:23.624Z,100773.94
2023-03-21T15:59:57.783Z,100768.72
2023-03-21T16:02:31.207Z,100782.75
2023-03-21T16:05:02.490Z,100780.97
2023-03-21T16:07:35.558Z,100760.94
2023-03-21T16:10:05.959Z,100761.75
2023-03-21T16:12:35.434Z,100746.84
2023-03-21T16:15:11.257Z,100731.00
2023-03-21T16:17:44.420Z,100759.84
2023-03-21T16:20:20.432Z,100753.69
2023-03-21T16:22:48.900Z,100740.59
2023-03-21T16:25:18.076Z,100745.91
2023-03-21T16:27:47.837Z,100738.97
2023-03-21T16:30:23.411Z,100735.38
2023-03-21T16:32:51.792Z,100738.84
2023-03-21T16:35:23.463Z,100740.59
2023-03-21T16:37:52.086Z,100731.97
2023-03-21T16:40:28.963Z,100717.97
2023-03-21T16:42:57.268Z,100710.91
2023-03-21T16:45:31.036Z,100709.97
2023-03-21T16:48:02.538Z,100691.66
2023-03-21T16:50:35.747Z,100716.09
2023-03-21T16:53:05.990Z,100696.81
2023-03-21T16:55:37.184Z,100717.88
2023-03-21T16:58:05.992Z,100714.38
2023-03-21T17:00:36.692Z,100714.38
2023-03-21T17:03:19.210Z,100688.13
2023-03-21T17:05:48.158Z,100704.66
2023-03-21T17:08:18.849Z,100693.06
2023-03-21T17:10:48.204Z,100686.13
2023-03-21T17:13:17.007Z,100672.28
2023-03-21T17:15:47.023Z,100689.75
2023-03-21T17:18:15.161Z,100673.91
2023-03-21T17:20:43.927Z,100649.41
2023-03-21T17:23:12.161Z,100662.50
2023-03-21T17:25:40.594Z,100617.88
2023-03-21T17:28:09.497Z,100656.31
2023-03-21T17:30:40.477Z,100637.03
2023-03-21T17:33:10.505Z,100622.91
2023-03-21T17:35:39.725Z,100647.56
2023-03-21T17:38:13.380Z,100554.97
2023-03-21T17:40:41.900Z,100634.25
2023-03-21T17:43:15.074Z,100633.34
2023-03-21T17:45:43.870Z,100604.38
2023-03-21T17:48:13.604Z,100624.66
2023-03-21T17:50:42.840Z,100629.97
2023-03-21T17:53:11.121Z,100609.69
2023-03-21T17:55:40.891Z,100614.84
2023-03-21T17:58:11.277Z,100606.91
2023-03-21T18:00:40.991Z,100613.94
2023-03-21T18:03:09.739Z,100606.97
2023-03-21T18:05:39.881Z,100594.53
2023-03-21T18:08:11.368Z,100594.50
2023-03-21T18:10:43.326Z,100569.25
2023-03-21T18:13:12.443Z,100586.72
2023-03-21T18:15:44.946Z,100585.78
2023-03-21T18:18:14.466Z,100584.06
2023-03-21T18:20:52.065Z,100542.19
2023-03-21T18:23:22.859Z,100543.84
2023-03-21T18:25:57.426Z,100542.03
2023-03-21T18:28:26.551Z,100570.88
2023-03-21T18:31:16.663Z,100556.00
2023-03-21T18:33:45.418Z,100559.47
2023-03-21T18:36:20.897Z,100555.16
2023-03-21T18:38:57.409Z,100536.78
2023-03-21T18:41:26.502Z,100517.56
2023-03-21T18:44:02.319Z,100535.03
2023-03-21T18:46:38.179Z,100541.91
2023-03-21T18:52:10.115Z,100507.34
2023-03-21T18:54:39.255Z,100522.28
2023-03-21T19:00:11.983Z,100527.84
2023-03-21T19:02:50.679Z,100485.13
2023-03-21T19:05:22.886Z,100491.06
2023-03-21T19:07:56.702Z,100494.53
2023-03-21T19:10:28.727Z,100488.53
2023-03-21T19:12:59.614Z,100500.69
2023-03-21T19:15:28.551Z,100499.94
2023-03-21T19:20:46.724Z,100490.81
2023-03-21T19:23:17.738Z,100409.56
2023-03-21T19:25:47.221Z,100476.66
2023-03-21T19:28:15.886Z,100466.06
2023-03-21T19:30:49.880Z,100436.34
2023-03-21T19:33:21.945Z,100471.13
2023-03-21T19:36:10.777Z,100450.31
2023-03-21T19:38:43.384Z,100464.06
2023-03-21T19:41:12.112Z,100469.28
2023-03-21T19:43:43.457Z,100464.16
2023-03-21T19:46:22.768Z,100467.66
2023-03-21T19:48:51.348Z,100458.81
2023-03-21T19:51:28.074Z,100455.66
2023-03-21T19:54:06.292Z,100453.84
2023-03-21T19:56:35.610Z,100462.56
2023-03-21T19:59:04.462Z,100429.53
2023-03-21T20:01:37.824Z,100436.66
2023-03-21T20:04:06.729Z,100435.94
2023-03-21T20:06:35.200Z,100436.50
2023-03-21T20:09:47.304Z,100448.59
2023-03-21T20:11:55.556Z,100443.25
2023-03-21T20:14:26.204Z,100424.28
2023-03-21T20:16:57.660Z,100437.41
2023-03-21T20:19:28.232Z,100401.78
2023-03-21T20:22:01.930Z,100394.06
2023-03-21T20:24:36.560Z,100398.41
2023-03-21T20:27:09.866Z,100427.41
2023-03-21T20:32:31.809Z,100419.13
2023-03-21T20:35:13.585Z,100384.22
2023-03-21T20:37:49.922Z,100412.00
2023-03-21T20:40:25.677Z,100408.66
2023-03-21T20:42:58.651Z,100422.72
2023-03-21T20:45:29.220Z,100418.53
2023-03-21T20:47:58.249Z,100417.50
2023-03-21T20:50:28.434Z,100402.59
2023-03-21T20:53:06.783Z,100413.97
2023-03-21T20:55:38.000Z,100392.94
2023-03-21T20:58:29.927Z,100406.13
2023-03-21T21:01:03.942Z,100401.69
2023-03-21T21:03:38.377Z,100399.94
2023-03-21T21:06:13.033Z,100400.03
2023-03-21T21:08:51.110Z,100412.41
2023-03-21T21:12:05.109Z,100405.28
2023-03-21T21:14:10.047Z,100391.16
2023-03-21T21:16:38.671Z,100390.34
2023-03-21T21:19:10.470Z,100355.47
2023-03-21T21:21:38.806Z,100398.19
2023-03-21T21:24:08.801Z,100376.97
2023-03-21T21:26:47.096Z,100377.91
2023-03-21T21:29:17.242Z,100385.75
2023-03-21T21:31:47.599Z,100382.34
2023-03-21T21:34:16.424Z,100385.97
2023-03-21T21:36:48.570Z,100377.97
2023-03-21T21:39:17.050Z,100378.72
2023-03-21T21:41:49.453Z,100319.44
2023-03-21T21:44:19.404Z,100361.16
2023-03-21T21:46:47.801Z,100359.63
2023-03-21T21:49:16.375Z,100335.06
2023-03-21T21:51:48.141Z,100333.34
2023-03-21T21:54:18.551Z,100362.25
2023-03-21T21:56:48.876Z,100363.16
2023-03-21T21:59:22.688Z,100358.59
2023-03-21T22:01:51.547Z,100347.13
2023-03-21T22:04:24.954Z,100347.25
2023-03-21T22:06:53.431Z,100334.03
2023-03-21T22:09:26.021Z,100340.03
2023-03-21T22:11:58.278Z,100333.84
2023-03-21T22:14:29.630Z,100329.38
2023-03-21T22:17:03.758Z,100317.16
2023-03-21T22:19:35.768Z,100332.81
2023-03-21T22:22:05.016Z,100327.84
2023-03-21T22:24:33.554Z,100329.56
2023-03-21T22:27:03.463Z,100326.06
2023-03-21T22:29:31.863Z,100329.50
2023-03-21T22:32:00.723Z,100318.84
2023-03-21T22:34:29.345Z,100329.25
2023-03-21T22:37:02.612Z,100324.03
2023-03-21T22:39:31.432Z,100327.59
2023-03-21T22:42:00.953Z,100324.19
2023-03-21T22:44:35.809Z,100325.81
2023-03-21T22:47:04.865Z,100317.44
2023-03-21T22:49:33.784Z,100298.25
2023-03-21T22:52:05.928Z,100325.81
2023-03-21T22:54:34.683Z,100309.94
2023-03-21T22:57:03.202Z,100319.72
2023-03-21T22:59:34.984Z,100290.69
2023-03-21T23:02:05.712Z,100288.78
2023-03-21T23:04:34.417Z,100301.03
2023-03-21T23:07:08.676Z,100308.34
2023-03-21T23:09:37.445Z,100274.22
2023-03-21T23:12:06.330Z,100302.09
2023-03-21T23:14:37.307Z,100294.28
2023-03-21T23:17:05.707Z,100290.66
2023-03-21T23:19:36.142Z,100293.41
2023-03-21T23:22:04.478Z,100282.06
2023-03-21T23:24:32.922Z,100289.38
2023-03-21T23:27:02.944Z,100287.63
2023-03-21T23:29:31.571Z,100279.81
2023-03-21T23:32:01.708Z,100267.75
2023-03-21T23:34:29.922Z,100261.56
2023-03-21T23:37:01.948Z,100278.22
2023-03-21T23:39:30.367Z,100274.75
2023-03-21T23:41:59.760Z,100269.59
2023-03-21T23:44:28.294Z,100268.59
2023-03-21T23:46:57.268Z,100255.22
2023-03-21T23:49:26.846Z,100262.22
2023-03-21T23:51:55.320Z,100233.63
2023-03-21T23:54:23.592Z,100247.28
2023-03-21T23:56:52.343Z,100237.69
2023-03-21T23:59:23.611Z,100210.97
